Time;durP1;ratioP1;P1;durP2;ratioP2;P2;SDS_P1;SDS_P2;PMS_P1;PMS_P2;Temp;Humidity;BMP_temperature;BMP_pressure;BME280_temperature;BME280_humidity;BME280_pressure;Samples;Min_cycle;Max_cycle;Signal;HPM_P1;HPM_P2
2022/07/02 00:01:02;;;;;;;1.02;0.80;;;18.30;51.80;;;;;;5043086;28;20052;-59
2022/07/02 00:03:33;;;;;;;2.42;1.20;;;18.30;51.80;;;;;;5044273;28;20428;-54
2022/07/02 00:06:02;;;;;;;2.15;1.02;;;18.20;51.90;;;;;;5045590;28;20064;-59
2022/07/02 00:08:30;;;;;;;1.63;0.73;;;18.20;51.90;;;;;;5044578;28;21562;-57
2022/07/02 00:10:59;;;;;;;1.83;1.05;;;18.20;52.00;;;;;;5044261;28;20060;-58
2022/07/02 00:13:28;;;;;;;3.58;0.80;;;18.10;52.00;;;;;;5043688;28;20311;-57
2022/07/02 00:15:56;;;;;;;0.88;0.60;;;18.10;52.10;;;;;;5044660;28;20060;-59
2022/07/02 00:18:25;;;;;;;0.98;0.70;;;18.10;52.20;;;;;;5044755;28;20060;-59
2022/07/02 00:20:53;;;;;;;0.80;0.77;;;18.10;52.20;;;;;;5042783;28;20063;-59
2022/07/02 00:23:20;;;;;;;1.98;0.80;;;18.00;52.30;;;;;;5045356;28;20060;-59
2022/07/02 00:25:53;;;;;;;2.13;0.90;;;18.00;52.40;;;;;;5044419;28;20049;-57
2022/07/02 00:28:25;;;;;;;1.65;0.85;;;18.00;52.40;;;;;;5044026;28;20048;-58
2022/07/02 00:30:52;;;;;;;1.98;0.85;;;17.90;52.40;;;;;;5042483;28;20428;-59
2022/07/02 00:33:21;;;;;;;2.20;0.90;;;17.90;52.40;;;;;;5043348;28;20405;-58
2022/07/02 00:35:50;;;;;;;2.10;1.05;;;17.90;52.50;;;;;;5044012;28;20072;-59
2022/07/02 00:38:18;;;;;;;3.83;1.02;;;17.90;53.10;;;;;;5043820;28;20056;-59
2022/07/02 00:40:45;;;;;;;4.97;1.10;;;17.80;52.60;;;;;;5042689;28;20545;-59
2022/07/02 00:43:13;;;;;;;2.15;0.90;;;17.80;52.70;;;;;;5043416;28;20496;-59
2022/07/02 00:45:41;;;;;;;2.83;0.95;;;17.80;52.80;;;;;;5043831;28;20498;-57
2022/07/02 00:48:08;;;;;;;3.03;0.90;;;17.80;52.90;;;;;;5044023;28;20065;-55
2022/07/02 00:50:36;;;;;;;1.77;0.80;;;17.70;52.80;;;;;;5043653;28;20049;-59
2022/07/02 00:53:05;;;;;;;2.92;1.20;;;17.70;52.90;;;;;;5043397;28;20056;-59
2022/07/02 00:55:32;;;;;;;2.53;0.80;;;17.70;53.00;;;;;;5044226;28;21554;-55
2022/07/02 00:58:01;;;;;;;3.08;0.82;;;17.60;53.00;;;;;;5043202;28;20060;-59
2022/07/02 01:00:29;;;;;;;2.15;0.90;;;17.60;53.10;;;;;;5040981;28;20086;-58
2022/07/02 01:02:57;;;;;;;1.45;1.00;;;17.60;53.20;;;;;;5043235;28;20049;-57
2022/07/02 01:05:25;;;;;;;2.20;1.05;;;17.60;53.30;;;;;;5043324;28;20059;-57
2022/07/02 01:10:40;;;;;;;1.98;0.95;;;17.50;53.40;;;;;;5041374;28;20060;-57
2022/07/02 01:13:09;;;;;;;3.85;1.20;;;17.50;53.50;;;;;;5043390;28;20470;-59
2022/07/02 01:15:38;;;;;;;2.88;0.80;;;17.50;53.50;;;;;;5042926;28;20055;-57
2022/07/02 01:18:06;;;;;;;1.02;0.82;;;17.40;53.50;;;;;;5042997;28;20064;-59
2022/07/02 01:20:34;;;;;;;2.70;0.90;;;17.40;53.60;;;;;;5042232;28;20496;-55
2022/07/02 01:23:03;;;;;;;0.60;0.60;;;17.40;53.60;;;;;;5043105;28;20528;-57
2022/07/02 01:25:31;;;;;;;3.20;1.10;;;17.40;53.70;;;;;;5043271;28;20049;-57
2022/07/02 01:27:58;;;;;;;1.23;0.80;;;17.30;53.70;;;;;;5042896;28;20061;-57
2022/07/02 01:30:27;;;;;;;1.45;0.73;;;17.30;53.80;;;;;;5041249;28;20508;-58
2022/07/02 01:32:54;;;;;;;2.45;0.98;;;17.30;53.70;;;;;;5042702;28;20045;-56
2022/07/02 01:35:21;;;;;;;0.98;0.85;;;17.30;53.80;;;;;;5043736;28;20076;-59
2022/07/02 01:37:50;;;;;;;1.30;0.73;;;17.20;53.80;;;;;;5042709;28;20537;-59
2022/07/02 01:40:19;;;;;;;3.20;1.05;;;17.20;53.90;;;;;;5042368;28;20057;-57
2022/07/02 01:42:46;;;;;;;0.95;0.68;;;17.20;54.10;;;;;;5041302;28;20056;-58
2022/07/02 01:45:14;;;;;;;1.60;1.00;;;17.20;54.10;;;;;;5041983;28;20530;-55
2022/07/02 01:47:41;;;;;;;1.90;0.95;;;17.20;54.20;;;;;;5039984;28;20067;-56
2022/07/02 01:50:09;;;;;;;1.23;0.80;;;17.10;54.20;;;;;;5040411;28;20503;-57
2022/07/02 01:52:37;;;;;;;2.22;1.20;;;17.10;54.30;;;;;;5041041;28;20500;-57
2022/07/02 01:55:05;;;;;;;1.13;0.70;;;17.10;54.40;;;;;;5041073;28;20079;-59
2022/07/02 01:57:35;;;;;;;1.95;0.70;;;17.10;54.40;;;;;;5041884;28;20057;-59
2022/07/02 02:00:04;;;;;;;1.15;0.80;;;17.10;54.60;;;;;;5040817;28;20053;-59
2022/07/02 02:02:32;;;;;;;4.25;1.13;;;17.00;54.60;;;;;;5038297;28;20049;-58
2022/07/02 02:04:59;;;;;;;1.02;0.80;;;17.00;54.50;;;;;;5043512;28;20064;-59
2022/07/02 02:07:27;;;;;;;2.53;0.90;;;17.00;54.60;;;;;;5040224;28;20424;-58
2022/07/02 02:09:54;;;;;;;1.17;0.52;;;17.00;54.60;;;;;;5041547;28;20064;-57
2022/07/02 02:12:22;;;;;;;3.03;0.90;;;17.00;54.60;;;;;;5042009;28;20977;-59
2022/07/02 02:14:52;;;;;;;0.70;0.70;;;16.90;54.60;;;;;;5041330;28;20048;-58
2022/07/02 02:17:19;;;;;;;1.02;0.70;;;16.90;54.70;;;;;;5040507;28;20056;-57
2022/07/02 02:19:47;;;;;;;1.33;0.70;;;16.90;54.70;;;;;;5039807;28;20049;-58
2022/07/02 02:22:15;;;;;;;0.85;0.57;;;16.90;54.80;;;;;;5039256;28;20049;-58
2022/07/02 02:24:43;;;;;;;2.72;0.70;;;16.90;54.80;;;;;;5042086;28;20417;-59
2022/07/02 02:27:10;;;;;;;1.48;0.70;;;16.80;54.80;;;;;;5042690;28;20072;-57
2022/07/02 02:29:38;;;;;;;1.98;0.80;;;16.80;54.90;;;;;;5039979;28;20059;-56
2022/07/02 02:32:09;;;;;;;1.77;1.00;;;16.80;54.90;;;;;;5040306;28;20057;-56
2022/07/02 02:34:36;;;;;;;1.50;0.90;;;16.80;55.00;;;;;;5042152;28;20052;-59
2022/07/02 02:37:04;;;;;;;1.63;0.95;;;16.80;55.00;;;;;;5040221;28;20061;-59
2022/07/02 02:39:32;;;;;;;1.80;1.20;;;16.80;55.10;;;;;;5040150;28;20052;-59
2022/07/02 02:41:59;;;;;;;2.28;1.20;;;16.70;55.10;;;;;;5038369;28;20057;-59
2022/07/02 02:44:26;;;;;;;1.08;0.93;;;16.70;55.10;;;;;;4976577;28;1173350;-57
2022/07/02 02:46:54;;;;;;;1.42;0.88;;;16.70;55.20;;;;;;5019482;28;20429;-57
2022/07/02 02:49:23;;;;;;;5.03;1.05;;;16.70;55.40;;;;;;5020393;28;20045;-58
2022/07/02 02:51:50;;;;;;;5.95;1.00;;;16.60;55.50;;;;;;5020438;28;20413;-59
2022/07/02 02:54:18;;;;;;;1.33;0.95;;;16.60;55.50;;;;;;5020824;28;20072;-59
2022/07/02 02:56:45;;;;;;;2.05;0.98;;;16.60;55.50;;;;;;5020086;28;20057;-56
2022/07/02 02:59:13;;;;;;;1.20;0.80;;;16.60;55.50;;;;;;5020613;28;21673;-58
2022/07/02 03:01:40;;;;;;;3.17;1.25;;;16.60;55.50;;;;;;5019388;28;20061;-59
2022/07/02 03:04:08;;;;;;;2.83;1.13;;;16.50;55.50;;;;;;5019531;28;20425;-55
2022/07/02 03:06:38;;;;;;;3.53;1.13;;;16.60;55.70;;;;;;5017843;28;20057;-59
2022/07/02 03:09:06;;;;;;;2.13;1.20;;;16.50;55.80;;;;;;5021699;28;20417;-57
2022/07/02 03:11:34;;;;;;;3.38;1.10;;;16.50;55.70;;;;;;5019258;28;20520;-59
2022/07/02 03:14:01;;;;;;;2.17;1.35;;;16.50;55.70;;;;;;5021213;28;20076;-58
2022/07/02 03:16:28;;;;;;;1.80;1.13;;;16.50;55.70;;;;;;5021406;28;20064;-57
2022/07/02 03:18:56;;;;;;;1.35;1.08;;;16.50;55.80;;;;;;5024212;28;20069;-57
2022/07/02 03:21:28;;;;;;;3.10;1.40;;;16.50;55.80;;;;;;5026028;28;20132;-57
2022/07/02 03:24:01;;;;;;;3.83;1.38;;;16.40;56.00;;;;;;5025208;28;20053;-58
2022/07/02 03:26:28;;;;;;;1.80;1.20;;;16.40;56.10;;;;;;5026579;28;20490;-59
2022/07/02 03:28:56;;;;;;;3.08;1.23;;;16.40;56.10;;;;;;5026257;28;20056;-59
2022/07/02 03:31:23;;;;;;;2.83;1.40;;;16.40;56.20;;;;;;5022913;28;20482;-57
2022/07/02 03:33:51;;;;;;;3.40;1.25;;;16.40;56.30;;;;;;5027145;28;20046;-56
2022/07/02 03:36:18;;;;;;;1.52;1.30;;;16.40;56.30;;;;;;5025928;28;20045;-58
2022/07/02 03:38:46;;;;;;;8.20;1.88;;;16.30;56.30;;;;;;5026481;28;20053;-57
2022/07/02 03:41:15;;;;;;;3.25;1.58;;;16.30;56.40;;;;;;5024005;28;20053;-59
2022/07/02 03:44:19;;;;;;;2.13;1.20;;;16.30;56.40;;;;;;5026613;28;20064;-59
2022/07/02 03:47:02;;;;;;;2.55;1.20;;;16.30;56.50;;;;;;5028686;28;20505;-59
2022/07/02 03:49:42;;;;;;;2.00;1.20;;;16.30;56.30;;;;;;5027853;28;20053;-58
2022/07/02 03:55:05;;;;;;;3.70;1.15;;;16.30;56.50;;;;;;5024751;28;20052;-59
2022/07/02 03:57:34;;;;;;;9.20;1.40;;;16.30;56.30;;;;;;5025724;28;20433;-57
2022/07/02 04:00:02;;;;;;;6.22;1.00;;;16.30;56.50;;;;;;5025033;28;20049;-58
2022/07/02 04:02:30;;;;;;;3.03;1.10;;;16.30;56.50;;;;;;5023437;28;20424;-59
2022/07/02 04:04:57;;;;;;;1.70;1.23;;;16.30;56.60;;;;;;5023147;28;20053;-59
2022/07/02 04:07:25;;;;;;;3.25;1.20;;;16.20;56.60;;;;;;5025858;28;20072;-58
2022/07/02 04:09:53;;;;;;;3.15;1.10;;;16.30;56.70;;;;;;5025358;28;20417;-59
2022/07/02 04:12:20;;;;;;;2.85;1.25;;;16.30;56.80;;;;;;5024192;28;20076;-59
2022/07/02 04:14:49;;;;;;;4.35;1.27;;;16.20;57.00;;;;;;5025484;28;21306;-58
2022/07/02 04:17:16;;;;;;;6.28;2.38;;;16.20;57.10;;;;;;5019404;28;20066;-59
2022/07/02 04:19:44;;;;;;;3.33;2.00;;;16.20;57.20;;;;;;5023028;28;20050;-58
2022/07/02 04:22:11;;;;;;;2.05;1.35;;;16.20;57.30;;;;;;5024374;28;20053;-59
2022/07/02 04:24:39;;;;;;;2.00;1.20;;;16.20;57.30;;;;;;5022988;28;20044;-57
2022/07/02 04:27:06;;;;;;;2.65;1.48;;;16.20;57.40;;;;;;5026187;28;21103;-57
2022/07/02 04:29:34;;;;;;;3.42;1.45;;;16.20;57.40;;;;;;5024354;28;20409;-58
2022/07/02 04:32:03;;;;;;;1.13;1.00;;;16.20;57.40;;;;;;5023351;28;20057;-57
2022/07/02 04:34:30;;;;;;;9.40;5.00;;;16.20;57.50;;;;;;5025649;28;20056;-59
2022/07/02 04:36:58;;;;;;;4.13;2.33;;;16.30;57.60;;;;;;5025258;28;20061;-57
2022/07/02 04:39:25;;;;;;;2.97;1.83;;;16.30;57.60;;;;;;5024807;28;20528;-57
2022/07/02 04:41:53;;;;;;;2.33;1.15;;;16.30;57.70;;;;;;5022675;28;20069;-57
2022/07/02 04:44:20;;;;;;;2.58;1.40;;;16.30;57.70;;;;;;5023916;28;20069;-58
2022/07/02 04:46:48;;;;;;;2.15;1.20;;;16.30;57.90;;;;;;5023097;28;20057;-59
2022/07/02 04:49:17;;;;;;;1.83;1.20;;;16.30;57.80;;;;;;5023560;28;20417;-59
2022/07/02 04:51:44;;;;;;;1.65;1.20;;;16.30;57.90;;;;;;5021636;28;20053;-59
2022/07/02 04:54:12;;;;;;;1.95;1.30;;;16.40;58.00;;;;;;5025138;28;20053;-58
2022/07/02 04:56:39;;;;;;;3.35;1.23;;;16.40;58.00;;;;;;5023805;28;20046;-59
2022/07/02 04:59:07;;;;;;;4.85;1.33;;;16.40;58.00;;;;;;5024862;28;20053;-59
2022/07/02 05:01:34;;;;;;;2.35;1.52;;;16.40;58.20;;;;;;5021892;28;20056;-59
2022/07/02 05:04:02;;;;;;;2.38;1.10;;;16.50;58.30;;;;;;5021077;28;20711;-58
2022/07/02 05:06:31;;;;;;;1.33;1.05;;;16.50;58.30;;;;;;5023080;28;20045;-57
2022/07/02 05:08:59;;;;;;;1.60;1.15;;;16.50;58.50;;;;;;5021787;28;20053;-57
2022/07/02 05:11:26;;;;;;;2.15;1.40;;;16.50;58.50;;;;;;5023207;28;20040;-58
2022/07/02 05:13:54;;;;;;;2.70;1.10;;;16.50;58.60;;;;;;5020589;28;20061;-57
2022/07/02 05:16:22;;;;;;;4.13;1.30;;;16.60;58.70;;;;;;5023192;28;20054;-58
2022/07/02 05:18:49;;;;;;;1.50;0.70;;;16.60;58.70;;;;;;5024607;28;20441;-59
2022/07/02 05:21:17;;;;;;;2.47;1.08;;;16.70;58.90;;;;;;5023538;28;20053;-58
2022/07/02 05:23:46;;;;;;;6.07;1.70;;;16.70;58.90;;;;;;5022858;28;20669;-59
2022/07/02 05:26:13;;;;;;;3.70;1.30;;;16.70;59.00;;;;;;5024952;28;20049;-58
2022/07/02 05:28:41;;;;;;;1.95;1.10;;;16.80;59.00;;;;;;5023628;28;20064;-57
2022/07/02 05:31:08;;;;;;;2.53;1.42;;;16.80;59.40;;;;;;5021581;28;20622;-59
2022/07/02 05:33:35;;;;;;;2.17;0.93;;;16.90;59.20;;;;;;5022655;28;20068;-60
2022/07/02 05:36:03;;;;;;;2.10;1.50;;;16.90;59.10;;;;;;5023420;28;20057;-57
2022/07/02 05:38:31;;;;;;;1.90;0.98;;;16.90;59.10;;;;;;5020924;28;20053;-58
2022/07/02 05:41:00;;;;;;;3.05;1.15;;;17.00;59.20;;;;;;5021732;28;20501;-59
2022/07/02 05:43:27;;;;;;;1.88;1.20;;;17.10;59.30;;;;;;5022704;28;20064;-59
2022/07/02 05:45:55;;;;;;;2.50;1.15;;;17.10;59.30;;;;;;5022544;28;20069;-55
2022/07/02 05:48:22;;;;;;;3.45;1.20;;;17.20;59.50;;;;;;5023342;28;20485;-57
2022/07/02 05:50:50;;;;;;;3.25;1.23;;;17.20;59.30;;;;;;5023208;28;20048;-57
2022/07/02 05:53:18;;;;;;;1.65;1.10;;;17.30;59.40;;;;;;5023112;28;20053;-59
2022/07/02 05:55:45;;;;;;;1.52;1.00;;;17.40;59.50;;;;;;5024164;28;20056;-56
2022/07/02 05:58:14;;;;;;;1.48;1.15;;;17.40;59.50;;;;;;5021721;28;20056;-60
2022/07/02 06:00:42;;;;;;;1.77;0.90;;;17.50;59.50;;;;;;5021026;28;20057;-57
2022/07/02 06:03:09;;;;;;;2.35;1.13;;;17.60;59.50;;;;;;5022765;28;20057;-57
2022/07/02 06:08:21;;;;;;;2.95;1.20;;;17.70;59.50;;;;;;5029814;28;20049;-56
2022/07/02 06:10:49;;;;;;;2.08;0.90;;;17.80;59.40;;;;;;5021796;28;20630;-58
2022/07/02 06:13:17;;;;;;;2.63;0.95;;;17.90;59.50;;;;;;5019519;28;20060;-60
2022/07/02 06:15:45;;;;;;;3.03;1.20;;;18.00;59.50;;;;;;5021139;28;20546;-60
2022/07/02 06:18:13;;;;;;;4.00;0.93;;;18.00;59.40;;;;;;5021386;28;20060;-60
2022/07/02 06:20:40;;;;;;;2.28;0.90;;;18.10;59.40;;;;;;5019660;28;20056;-59
2022/07/02 06:23:08;;;;;;;2.47;1.05;;;18.20;59.40;;;;;;5022615;28;20049;-57
2022/07/02 06:25:35;;;;;;;2.47;0.88;;;18.30;59.30;;;;;;5021105;28;20057;-60
2022/07/02 06:28:03;;;;;;;2.03;0.80;;;18.30;59.20;;;;;;5020456;28;20053;-60
2022/07/02 06:30:32;;;;;;;2.75;0.88;;;18.40;59.00;;;;;;5019043;28;20049;-58
2022/07/02 06:32:59;;;;;;;3.53;1.75;;;18.50;59.00;;;;;;5022446;28;20504;-60
2022/07/02 06:35:26;;;;;;;2.58;0.80;;;18.60;59.00;;;;;;5021364;28;20049;-59
2022/07/02 06:37:54;;;;;;;6.38;0.90;;;18.60;58.90;;;;;;5018933;28;20057;-61
2022/07/02 06:40:21;;;;;;;1.10;0.90;;;18.70;58.80;;;;;;5021092;28;20054;-61
2022/07/02 06:42:49;;;;;;;4.65;1.00;;;18.80;58.70;;;;;;5018295;28;20045;-61
2022/07/02 06:45:16;;;;;;;1.83;0.95;;;18.90;58.50;;;;;;5018861;28;20084;-61
2022/07/02 06:47:45;;;;;;;2.03;0.90;;;18.90;58.30;;;;;;5022791;28;20505;-61
2022/07/02 06:50:13;;;;;;;1.08;0.73;;;19.00;58.30;;;;;;5022683;28;20501;-61
2022/07/02 06:52:44;;;;;;;2.55;1.00;;;19.00;58.10;;;;;;5022899;28;20406;-60
2022/07/02 06:55:12;;;;;;;1.00;0.80;;;19.10;58.10;;;;;;5021800;28;20437;-60
2022/07/02 06:57:39;;;;;;;1.77;0.95;;;19.20;58.10;;;;;;5020230;28;20608;-61
2022/07/02 07:00:08;;;;;;;4.90;2.83;;;19.30;58.10;;;;;;5020481;28;20520;-60
2022/07/02 07:02:35;;;;;;;3.72;2.13;;;19.30;58.10;;;;;;5018707;28;20049;-61
2022/07/02 07:05:05;;;;;;;3.55;1.60;;;19.40;57.90;;;;;;5021424;28;20061;-60
2022/07/02 07:07:34;;;;;;;5.55;1.15;;;19.50;57.80;;;;;;5020154;28;20049;-61
2022/07/02 07:10:02;;;;;;;0.98;0.68;;;19.60;57.30;;;;;;5020463;28;20505;-61
2022/07/02 07:12:30;;;;;;;1.38;0.52;;;19.70;56.90;;;;;;5020456;28;20049;-61
2022/07/02 07:15:00;;;;;;;1.85;0.47;;;19.70;56.80;;;;;;5018712;28;20072;-61
2022/07/02 07:17:27;;;;;;;0.88;0.50;;;19.80;56.40;;;;;;5018829;28;20568;-60
2022/07/02 07:19:55;;;;;;;2.90;0.82;;;19.90;56.00;;;;;;5020148;28;20057;-61
2022/07/02 07:22:24;;;;;;;1.40;0.90;;;20.00;55.80;;;;;;5020480;28;20068;-60
2022/07/02 07:24:51;;;;;;;2.03;0.60;;;20.00;55.40;;;;;;5021508;28;20052;-61
2022/07/02 07:27:20;;;;;;;1.08;0.50;;;20.10;55.30;;;;;;5020920;28;20053;-61
2022/07/02 07:29:48;;;;;;;2.58;0.55;;;20.20;55.00;;;;;;5019410;28;20050;-57
2022/07/02 07:32:15;;;;;;;4.93;1.10;;;20.20;55.40;;;;;;5019214;28;20065;-61
2022/07/02 07:34:43;;;;;;;1.52;0.70;;;20.30;54.40;;;;;;5020723;28;20049;-62
2022/07/02 07:37:11;;;;;;;0.90;0.57;;;20.40;54.40;;;;;;5019690;28;20052;-61
2022/07/02 07:39:40;;;;;;;1.35;0.70;;;20.40;54.30;;;;;;5021741;28;20575;-61
2022/07/02 07:42:08;;;;;;;4.95;0.80;;;20.50;54.10;;;;;;5020654;28;20065;-61
2022/07/02 07:44:35;;;;;;;1.05;0.60;;;20.60;53.80;;;;;;5018891;28;20148;-62
2022/07/02 07:47:03;;;;;;;3.78;0.47;;;20.60;53.70;;;;;;5020883;28;20056;-61
2022/07/02 07:49:30;;;;;;;1.05;0.35;;;20.70;53.60;;;;;;5020497;28;20062;-60
2022/07/02 07:51:58;;;;;;;23.45;0.80;;;20.80;53.30;;;;;;5019915;28;20061;-59
2022/07/02 07:54:25;;;;;;;4.88;0.75;;;20.80;52.60;;;;;;5020109;28;20417;-60
2022/07/02 07:56:54;;;;;;;0.70;0.50;;;20.90;52.30;;;;;;5019342;28;20053;-59
2022/07/02 07:59:21;;;;;;;3.28;0.90;;;21.00;52.10;;;;;;5020891;28;20062;-60
2022/07/02 08:01:49;;;;;;;1.70;0.77;;;21.00;52.00;;;;;;5019828;28;20049;-59
2022/07/02 08:04:16;;;;;;;2.58;0.40;;;21.10;51.60;;;;;;5020866;28;20068;-61
2022/07/02 08:06:44;;;;;;;0.90;0.50;;;21.20;51.30;;;;;;5023676;28;20508;-59
2022/07/02 08:09:12;;;;;;;2.58;0.30;;;21.20;51.30;;;;;;5023612;28;20049;-62
2022/07/02 08:11:39;;;;;;;0.90;0.50;;;21.30;51.30;;;;;;5025051;28;20399;-61
2022/07/02 08:14:08;;;;;;;2.83;0.70;;;21.30;51.00;;;;;;5026055;28;20058;-62
2022/07/02 08:16:36;;;;;;;3.10;0.60;;;21.40;50.80;;;;;;5023824;28;20050;-62
2022/07/02 08:19:04;;;;;;;1.77;0.30;;;21.50;50.90;;;;;;5024183;28;20509;-61
2022/07/02 08:21:32;;;;;;;1.05;0.50;;;21.50;50.70;;;;;;5024550;28;20768;-60
2022/07/02 08:23:59;;;;;;;1.40;0.32;;;21.60;50.20;;;;;;5025427;28;20060;-58
2022/07/02 08:26:26;;;;;;;2.08;0.52;;;21.60;49.80;;;;;;5025852;28;20520;-52
2022/07/02 08:28:54;;;;;;;1.67;0.60;;;21.70;48.80;;;;;;5025168;28;20057;-51
2022/07/02 08:31:23;;;;;;;3.13;0.55;;;21.80;48.50;;;;;;5022044;28;20053;-61
2022/07/02 08:33:50;;;;;;;2.45;0.50;;;21.80;49.00;;;;;;5025153;28;20429;-62
2022/07/02 08:36:18;;;;;;;10.02;0.60;;;21.80;48.90;;;;;;5025493;28;20060;-61
2022/07/02 08:38:45;;;;;;;0.75;0.40;;;21.90;48.90;;;;;;5024665;28;20863;-57
2022/07/02 08:41:14;;;;;;;1.35;0.50;;;21.90;48.60;;;;;;5023859;28;20065;-60
2022/07/02 08:43:42;;;;;;;2.70;0.50;;;22.00;48.70;;;;;;5022888;28;20127;-57
2022/07/02 08:46:12;;;;;;;2.85;0.73;;;22.00;49.00;;;;;;5021226;28;20057;-56
2022/07/02 08:48:42;;;;;;;1.75;0.40;;;22.10;48.20;;;;;;5023768;28;20490;-61
2022/07/02 08:51:14;;;;;;;4.60;0.65;;;22.20;48.30;;;;;;5022195;28;21688;-60
2022/07/02 08:53:42;;;;;;;1.38;0.57;;;22.20;48.30;;;;;;5018918;28;20049;-57
2022/07/02 08:56:13;;;;;;;1.38;0.50;;;22.30;47.70;;;;;;5018770;28;20068;-56
2022/07/02 08:58:40;;;;;;;4.85;0.50;;;22.30;46.90;;;;;;5022473;28;20049;-59
2022/07/02 09:01:09;;;;;;;1.55;0.68;;;22.40;46.70;;;;;;5024718;28;20061;-59
2022/07/02 09:03:38;;;;;;;3.45;0.60;;;22.40;46.50;;;;;;5024795;28;20528;-61
2022/07/02 09:06:08;;;;;;;0.60;0.30;;;22.40;46.90;;;;;;5024217;28;20057;-61
2022/07/02 09:08:37;;;;;;;2.60;0.50;;;22.60;47.00;;;;;;5024944;28;20053;-62
2022/07/02 09:11:07;;;;;;;2.45;0.63;;;22.60;47.00;;;;;;5023559;28;20064;-52
2022/07/02 09:13:35;;;;;;;2.67;0.90;;;22.60;45.90;;;;;;5014243;28;20057;-60
2022/07/02 09:16:03;;;;;;;4.78;0.40;;;22.70;46.00;;;;;;5015993;28;20075;-60
2022/07/02 09:18:30;;;;;;;0.98;0.35;;;22.70;45.90;;;;;;5017100;28;20460;-60
2022/07/02 09:20:58;;;;;;;1.50;0.50;;;22.80;45.80;;;;;;5017173;28;20049;-58
2022/07/02 09:23:27;;;;;;;2.75;0.40;;;22.90;45.50;;;;;;5019378;28;20058;-59
2022/07/02 09:25:55;;;;;;;4.28;0.80;;;22.90;45.30;;;;;;5017232;28;20834;-61
2022/07/02 09:28:22;;;;;;;0.73;0.50;;;23.00;45.40;;;;;;5017127;28;20049;-61
2022/07/02 09:30:50;;;;;;;0.98;0.30;;;23.00;45.60;;;;;;5019473;28;20053;-59
2022/07/02 09:36:11;;;;;;;3.45;0.60;;;23.10;44.40;;;;;;5010045;28;20041;-60
2022/07/02 09:38:44;;;;;;;3.05;0.63;;;23.20;44.60;;;;;;5016554;28;20099;-54
2022/07/02 09:41:13;;;;;;;2.35;0.60;;;23.30;44.20;;;;;;5018248;28;20041;-59
2022/07/02 09:43:41;;;;;;;2.50;0.38;;;23.40;44.60;;;;;;5020368;28;20060;-62
2022/07/02 09:46:16;;;;;;;1.17;0.40;;;23.40;44.50;;;;;;5016892;28;20124;-60
2022/07/02 09:48:44;;;;;;;3.47;0.70;;;23.50;44.20;;;;;;5018040;28;20056;-62
2022/07/02 09:51:11;;;;;;;3.00;0.57;;;23.50;44.60;;;;;;5017023;28;20428;-60
2022/07/02 09:53:50;;;;;;;1.80;0.50;;;23.50;44.20;;;;;;5016708;28;20064;-60
2022/07/02 09:56:17;;;;;;;2.55;0.55;;;23.60;43.80;;;;;;5016962;28;20444;-58
2022/07/02 09:58:45;;;;;;;1.70;0.80;;;23.60;43.80;;;;;;5020193;28;20629;-59
2022/07/02 10:01:12;;;;;;;2.63;0.60;;;23.60;43.70;;;;;;5014718;28;20050;-51
2022/07/02 10:03:50;;;;;;;3.63;0.50;;;23.70;43.70;;;;;;5018658;28;20420;-61
2022/07/02 10:06:17;;;;;;;2.53;0.50;;;23.60;43.20;;;;;;5017169;28;20497;-61
2022/07/02 10:08:45;;;;;;;3.28;0.55;;;23.70;42.90;;;;;;5015879;28;20076;-58
2022/07/02 10:11:16;;;;;;;1.63;0.43;;;23.70;43.00;;;;;;5013924;28;20072;-59
2022/07/02 10:13:44;;;;;;;3.88;0.50;;;23.70;42.80;;;;;;5016317;28;20065;-60
2022/07/02 10:16:14;;;;;;;2.53;0.47;;;23.80;42.80;;;;;;5018817;28;20481;-61
2022/07/02 10:18:43;;;;;;;1.70;0.57;;;23.80;42.80;;;;;;5024730;28;20045;-63
2022/07/02 10:21:13;;;;;;;1.27;0.30;;;23.80;42.50;;;;;;5022622;28;20053;-62
2022/07/02 10:23:41;;;;;;;5.78;0.60;;;23.80;42.20;;;;;;5024196;28;20136;-59
2022/07/02 10:26:09;;;;;;;0.63;0.30;;;23.90;41.90;;;;;;5023260;28;20137;-55
2022/07/02 10:28:39;;;;;;;1.65;0.50;;;23.90;41.90;;;;;;5021773;28;20531;-56
2022/07/02 10:31:12;;;;;;;2.13;0.60;;;23.90;41.30;;;;;;5021759;28;20064;-58
2022/07/02 10:33:44;;;;;;;3.63;0.52;;;23.90;41.50;;;;;;5023056;28;20050;-59
2022/07/02 10:36:15;;;;;;;4.05;0.60;;;24.00;41.30;;;;;;5023506;28;20056;-50
2022/07/02 10:38:46;;;;;;;1.88;0.30;;;24.00;41.00;;;;;;5022824;28;20046;-56
2022/07/02 10:41:13;;;;;;;2.53;0.52;;;24.00;41.30;;;;;;5022780;28;20057;-60
2022/07/02 10:43:43;;;;;;;1.20;0.43;;;24.10;41.90;;;;;;5022677;28;20382;-55
2022/07/02 10:46:11;;;;;;;2.97;0.50;;;24.10;41.70;;;;;;5022386;28;20062;-52
2022/07/02 10:48:49;;;;;;;1.83;0.60;;;24.10;41.80;;;;;;5023213;28;20056;-52
2022/07/02 10:51:19;;;;;;;3.80;0.50;;;24.20;41.90;;;;;;5019671;28;20497;-48
2022/07/02 10:53:49;;;;;;;3.83;0.43;;;24.20;41.40;;;;;;5018445;28;20053;-54
2022/07/02 10:56:17;;;;;;;2.05;0.50;;;24.30;42.00;;;;;;5017338;28;20057;-49
2022/07/02 10:58:46;;;;;;;0.93;0.40;;;24.30;41.00;;;;;;5018473;28;20060;-50
2022/07/02 11:01:15;;;;;;;2.83;0.60;;;24.40;40.70;;;;;;5015008;28;20049;-46
2022/07/02 11:03:53;;;;;;;1.42;0.40;;;24.40;41.20;;;;;;5019388;28;20064;-63
2022/07/02 11:06:23;;;;;;;0.80;0.30;;;24.40;41.40;;;;;;5017343;28;20052;-62
2022/07/02 11:08:57;;;;;;;1.23;0.38;;;24.50;41.10;;;;;;5017220;28;20071;-62
2022/07/02 11:11:47;;;;;;;1.33;0.70;;;24.50;41.00;;;;;;5015870;28;20056;-60
2022/07/02 11:14:17;;;;;;;1.95;0.60;;;24.50;40.60;;;;;;5017146;28;20049;-58
2022/07/02 11:16:47;;;;;;;1.13;0.50;;;24.50;41.00;;;;;;5017794;28;20061;-58
2022/07/02 11:19:17;;;;;;;1.30;0.55;;;24.60;40.10;;;;;;5016400;28;20049;-58
2022/07/02 11:21:46;;;;;;;1.75;0.52;;;24.60;40.80;;;;;;5017567;28;20060;-56
2022/07/02 11:24:16;;;;;;;2.38;0.60;;;24.70;40.70;;;;;;5022271;28;20045;-50
2022/07/02 11:26:45;;;;;;;3.65;0.70;;;24.70;40.60;;;;;;5025269;28;20402;-55
2022/07/02 11:29:15;;;;;;;2.95;0.60;;;24.70;40.50;;;;;;5022368;28;20056;-57
2022/07/02 11:31:46;;;;;;;1.10;0.50;;;24.80;40.50;;;;;;5023740;28;20053;-57
2022/07/02 11:34:16;;;;;;;4.03;0.85;;;24.80;41.00;;;;;;5024591;28;20061;-57
2022/07/02 11:36:43;;;;;;;1.33;0.57;;;24.90;40.70;;;;;;5024465;28;20053;-56
2022/07/02 11:39:13;;;;;;;1.20;0.40;;;24.90;40.70;;;;;;5026112;28;20053;-61
2022/07/02 11:41:44;;;;;;;0.60;0.40;;;25.00;39.90;;;;;;5028293;28;20069;-58
2022/07/02 11:44:16;;;;;;;2.15;0.40;;;25.00;40.00;;;;;;5027828;28;20080;-60
2022/07/02 11:46:49;;;;;;;4.57;0.50;;;25.00;40.40;;;;;;5025865;28;20057;-57
2022/07/02 11:49:18;;;;;;;3.67;0.60;;;25.10;40.90;;;;;;5025221;28;20053;-59
2022/07/02 11:51:47;;;;;;;2.67;0.50;;;25.10;40.40;;;;;;5026523;28;20477;-55
2022/07/02 11:54:15;;;;;;;1.67;0.50;;;25.20;40.70;;;;;;5026440;28;20053;-62
2022/07/02 11:56:44;;;;;;;1.20;0.50;;;25.20;40.60;;;;;;5025965;28;20052;-63
2022/07/02 11:59:13;;;;;;;1.38;0.68;;;25.20;40.00;;;;;;5024546;28;20076;-52
2022/07/02 12:01:43;;;;;;;1.73;0.50;;;25.20;40.10;;;;;;5026061;28;20064;-62
2022/07/02 12:04:13;;;;;;;1.60;0.45;;;25.20;39.80;;;;;;5026306;28;20472;-62
2022/07/02 12:06:43;;;;;;;2.10;0.40;;;25.30;40.00;;;;;;5026123;28;20057;-63
2022/07/02 12:09:12;;;;;;;1.38;0.60;;;25.30;40.20;;;;;;5025738;28;20053;-49
2022/07/02 12:11:42;;;;;;;2.25;0.80;;;25.30;40.10;;;;;;5025474;28;20057;-63
2022/07/02 12:14:11;;;;;;;0.75;0.47;;;25.40;39.90;;;;;;5024303;28;20520;-65
2022/07/02 12:16:40;;;;;;;2.17;0.60;;;25.40;39.20;;;;;;5026453;28;20064;-64
2022/07/02 12:19:09;;;;;;;1.67;0.85;;;25.40;39.50;;;;;;5025445;28;20053;-62
2022/07/02 12:21:41;;;;;;;1.98;0.60;;;25.40;39.10;;;;;;5025720;28;20068;-63
2022/07/02 12:24:19;;;;;;;3.58;0.50;;;25.50;39.40;;;;;;5025201;28;20068;-63
2022/07/02 12:26:47;;;;;;;4.38;0.47;;;25.50;39.20;;;;;;5023322;28;20120;-64
2022/07/02 12:32:11;;;;;;;1.48;0.50;;;25.60;39.10;;;;;;5026754;28;20078;-64
2022/07/02 12:34:40;;;;;;;0.88;0.40;;;25.60;38.60;;;;;;5025098;28;20053;-64
2022/07/02 12:37:20;;;;;;;0.75;0.40;;;25.60;39.30;;;;;;5022633;28;20055;-64
2022/07/02 12:39:47;;;;;;;1.70;0.40;;;25.60;39.20;;;;;;5022828;28;20051;-63
2022/07/02 12:42:18;;;;;;;4.18;0.55;;;25.70;38.90;;;;;;5022068;28;20060;-61
2022/07/02 12:44:59;;;;;;;1.13;0.47;;;25.70;39.30;;;;;;5021998;28;20061;-65
2022/07/02 12:47:33;;;;;;;0.60;0.40;;;25.70;38.50;;;;;;5023180;28;20061;-65
2022/07/02 12:50:02;;;;;;;2.20;0.55;;;25.80;38.80;;;;;;5022091;28;20111;-64
2022/07/02 12:52:44;;;;;;;1.25;0.30;;;25.80;39.00;;;;;;5020824;28;20253;-65
2022/07/02 12:55:21;;;;;;;6.28;1.10;;;25.80;38.80;;;;;;5025407;28;20053;-61
2022/07/02 12:57:49;;;;;;;1.40;0.80;;;25.80;38.90;;;;;;5018424;28;20064;-63
2022/07/02 13:00:17;;;;;;;0.95;0.40;;;25.90;38.70;;;;;;5021770;28;20421;-57
2022/07/02 13:02:44;;;;;;;0.75;0.35;;;25.90;38.20;;;;;;5021040;28;20053;-64
2022/07/02 13:05:12;;;;;;;2.33;0.40;;;25.90;39.10;;;;;;5019975;28;20050;-65
2022/07/02 13:07:41;;;;;;;3.00;0.45;;;25.90;38.40;;;;;;5021382;28;20061;-64